Time;durP1;ratioP1;P1;durP2;ratioP2;P2;SDS_P1;SDS_P2;PMS_P1;PMS_P2;Temp;Humidity;BMP_temperature;BMP_pressure;BME280_temperature;BME280_humidity;BME280_pressure;Samples;Min_cycle;Max_cycle;Signal;HPM_P1;HPM_P2
2023/01/18 00:02:35;;;;;;;;;;;19.50;52.10;;;;;;6318868;28;19911;-67
2023/01/18 00:05:40;;;;;;;;;;;19.50;52.00;;;;;;6318320;28;19986;-67
2023/01/18 00:08:41;;;;;;;;;;;19.50;52.10;;;;;;6318550;28;19904;-67
2023/01/18 00:11:42;;;;;;;;;;;19.50;52.10;;;;;;6318340;28;20415;-67
2023/01/18 00:14:42;;;;;;;;;;;19.40;52.00;;;;;;6300315;28;20288;-67
2023/01/18 00:17:46;;;;;;;;;;;19.40;52.00;;;;;;6300164;28;19911;-67
2023/01/18 00:20:47;;;;;;;;;;;19.40;52.00;;;;;;6318404;28;19915;-67
2023/01/18 00:23:48;;;;;;;;;;;19.40;51.90;;;;;;6318357;28;19998;-67
2023/01/18 00:26:48;;;;;;;;;;;19.50;52.20;;;;;;6317930;28;19916;-67
2023/01/18 00:29:49;;;;;;;;;;;19.40;51.90;;;;;;6316878;28;19948;-67
2023/01/18 00:32:55;;;;;;;;;;;19.40;52.00;;;;;;6300111;28;19947;-67
2023/01/18 00:36:00;;;;;;;;;;;19.40;52.00;;;;;;6300182;28;20335;-67
2023/01/18 00:39:01;;;;;;;;;;;19.40;52.00;;;;;;6317818;28;19911;-67
2023/01/18 00:45:21;;;;;;;;;;;19.40;52.10;;;;;;6317781;28;19904;-67
2023/01/18 00:48:22;;;;;;;;;;;19.40;52.10;;;;;;6299916;28;19911;-67
2023/01/18 00:51:23;;;;;;;;;;;19.40;52.10;;;;;;6299977;28;20348;-67
2023/01/18 00:54:24;;;;;;;;;;;19.40;52.00;;;;;;6317735;28;19912;-67
2023/01/18 00:57:25;;;;;;;;;;;19.40;52.00;;;;;;6320635;28;20524;-67
2023/01/18 01:00:25;;;;;;;;;;;19.40;52.10;;;;;;6322229;28;19911;-67
2023/01/18 01:03:26;;;;;;;;;;;19.50;52.10;;;;;;6322653;28;19904;-66
2023/01/18 01:06:44;;;;;;;;;;;19.40;52.00;;;;;;6322082;28;19911;-68
2023/01/18 01:09:45;;;;;;;;;;;19.50;52.00;;;;;;6322873;28;19918;-67
2023/01/18 01:29:05;;;;;;;;;;;19.40;52.10;;;;;;6322746;28;20284;-67
2023/01/18 01:32:05;;;;;;;;;;;19.40;52.10;;;;;;6322120;28;19904;-67
2023/01/18 01:35:06;;;;;;;;;;;19.40;52.20;;;;;;6322022;28;19908;-67
2023/01/18 01:38:07;;;;;;;;;;;19.40;52.20;;;;;;6322069;28;19904;-67
2023/01/18 01:41:09;;;;;;;;;;;19.40;52.20;;;;;;6321862;28;19904;-67
2023/01/18 01:44:16;;;;;;;;;;;19.40;52.10;;;;;;6321889;28;19957;-67
2023/01/18 01:47:30;;;;;;;;;;;19.40;52.30;;;;;;6321971;28;19905;-67
2023/01/18 01:50:33;;;;;;;;;;;19.40;52.20;;;;;;6321838;28;20268;-67
2023/01/18 01:53:34;;;;;;;;;;;19.40;52.10;;;;;;6321554;28;19912;-67
2023/01/18 01:56:34;;;;;;;;;;;19.40;52.20;;;;;;6321583;28;19965;-67
2023/01/18 01:59:38;;;;;;;;;;;19.40;52.20;;;;;;6303600;28;19919;-67
2023/01/18 02:02:39;;;;;;;;;;;19.40;52.30;;;;;;6321704;28;20261;-67
2023/01/18 02:05:42;;;;;;;;;;;19.50;52.20;;;;;;6320989;28;20353;-67
2023/01/18 02:08:46;;;;;;;;;;;19.40;52.10;;;;;;6320372;28;19908;-67
2023/01/18 02:11:46;;;;;;;;;;;19.40;52.10;;;;;;6294489;28;19905;-67
2023/01/18 02:14:47;;;;;;;;;;;19.40;52.10;;;;;;6296163;28;19966;-67
2023/01/18 02:17:59;;;;;;;;;;;19.40;52.20;;;;;;6296132;28;19904;-67
2023/01/18 02:21:14;;;;;;;;;;;19.40;52.10;;;;;;6277864;28;20034;-67
2023/01/18 02:24:22;;;;;;;;;;;19.40;52.20;;;;;;6295475;28;20408;-67
2023/01/18 02:27:42;;;;;;;;;;;19.40;52.20;;;;;;6323157;28;19915;-67
2023/01/18 02:31:01;;;;;;;;;;;19.40;52.10;;;;;;6320505;28;19903;-67
2023/01/18 02:34:12;;;;;;;;;;;19.40;52.00;;;;;;6320534;28;19915;-67
2023/01/18 02:37:33;;;;;;;;;;;19.40;52.00;;;;;;6321009;28;19911;-67
2023/01/18 02:40:42;;;;;;;;;;;19.40;52.00;;;;;;6320459;28;19915;-67
2023/01/18 02:47:03;;;;;;;;;;;19.40;51.90;;;;;;6320638;28;19904;-67
2023/01/18 02:50:04;;;;;;;;;;;19.40;52.20;;;;;;6320673;28;19946;-67
2023/01/18 02:53:04;;;;;;;;;;;19.40;51.90;;;;;;6320356;28;19958;-67
2023/01/18 02:56:05;;;;;;;;;;;19.40;52.80;;;;;;6319026;28;20057;-67
2023/01/18 02:59:09;;;;;;;;;;;19.40;52.20;;;;;;6320246;28;19969;-67
2023/01/18 03:02:15;;;;;;;;;;;19.40;52.00;;;;;;6320093;28;20222;-67
2023/01/18 03:05:17;;;;;;;;;;;19.40;52.10;;;;;;6319761;28;19908;-67
2023/01/18 03:08:23;;;;;;;;;;;19.40;52.00;;;;;;6320419;28;19904;-67
2023/01/18 03:11:30;;;;;;;;;;;19.40;51.90;;;;;;6300931;28;19910;-67
2023/01/18 03:14:39;;;;;;;;;;;19.40;52.00;;;;;;6319646;28;19931;-67
2023/01/18 03:18:01;;;;;;;;;;;19.40;52.00;;;;;;6319450;28;20405;-67
2023/01/18 03:21:04;;;;;;;;;;;19.40;52.00;;;;;;6319237;28;19943;-67
2023/01/18 03:24:06;;;;;;;;;;;19.40;51.90;;;;;;6319451;28;19915;-67
2023/01/18 03:33:53;;;;;;;;;;;19.40;52.00;;;;;;6319706;28;19908;-67
2023/01/18 03:36:55;;;;;;;;;;;19.40;52.00;;;;;;6319012;28;19904;-67
2023/01/18 03:39:57;;;;;;;;;;;19.40;51.90;;;;;;6301402;28;20007;-67
2023/01/18 03:43:02;;;;;;;;;;;19.40;52.00;;;;;;6318950;28;20429;-67
2023/01/18 03:46:03;;;;;;;;;;;19.40;52.10;;;;;;6319263;28;19999;-67
2023/01/18 03:49:04;;;;;;;;;;;19.40;52.10;;;;;;6318890;28;20700;-67
2023/01/18 03:52:05;;;;;;;;;;;19.40;52.00;;;;;;6319055;28;19904;-67
2023/01/18 03:55:09;;;;;;;;;;;19.40;52.40;;;;;;6300867;28;20285;-67
2023/01/18 03:58:11;;;;;;;;;;;19.40;52.20;;;;;;6318934;28;19904;-67
2023/01/18 04:01:12;;;;;;;;;;;19.40;52.40;;;;;;6318988;28;19912;-67
2023/01/18 04:04:13;;;;;;;;;;;19.40;52.40;;;;;;6318318;28;20301;-67
2023/01/18 04:07:13;;;;;;;;;;;19.40;52.40;;;;;;6318668;28;19940;-67
2023/01/18 04:10:14;;;;;;;;;;;19.40;52.20;;;;;;6318647;28;20280;-67
2023/01/18 04:13:15;;;;;;;;;;;19.40;52.40;;;;;;6300278;28;19961;-67
2023/01/18 04:16:15;;;;;;;;;;;19.40;52.30;;;;;;6317518;28;20392;-67
2023/01/18 04:19:16;;;;;;;;;;;19.40;52.40;;;;;;6300275;28;19911;-67
2023/01/18 04:22:17;;;;;;;;;;;19.40;52.40;;;;;;6318607;28;19904;-67
2023/01/18 04:25:18;;;;;;;;;;;19.40;52.20;;;;;;6300115;28;19961;-67
2023/01/18 04:28:24;;;;;;;;;;;19.40;52.40;;;;;;6318456;28;19958;-67
2023/01/18 04:31:24;;;;;;;;;;;19.40;52.30;;;;;;6317662;28;19919;-67
2023/01/18 04:34:25;;;;;;;;;;;19.40;52.40;;;;;;6317883;28;19908;-67
2023/01/18 04:37:29;;;;;;;;;;;19.40;52.20;;;;;;6300098;28;20432;-67
2023/01/18 04:40:30;;;;;;;;;;;19.40;52.40;;;;;;6318315;28;19957;-67
2023/01/18 04:43:31;;;;;;;;;;;19.40;52.40;;;;;;6318295;28;19908;-67
2023/01/18 04:46:31;;;;;;;;;;;19.40;52.40;;;;;;6300552;28;20642;-67
2023/01/18 04:49:32;;;;;;;;;;;19.40;52.40;;;;;;6318278;28;19926;-67
2023/01/18 04:52:33;;;;;;;;;;;19.40;52.40;;;;;;6317988;28;19908;-67
2023/01/18 04:55:33;;;;;;;;;;;19.40;52.40;;;;;;6317636;28;19950;-67
2023/01/18 04:58:35;;;;;;;;;;;19.40;52.40;;;;;;6317620;28;19908;-67
2023/01/18 05:01:35;;;;;;;;;;;19.30;53.00;;;;;;6317953;28;19904;-67
2023/01/18 05:04:36;;;;;;;;;;;19.40;52.40;;;;;;6299717;28;19904;-67
2023/01/18 05:07:37;;;;;;;;;;;19.40;52.30;;;;;;6317302;28;19911;-67
2023/01/18 05:10:37;;;;;;;;;;;19.40;52.40;;;;;;6317597;28;19911;-67
2023/01/18 05:13:38;;;;;;;;;;;19.40;52.40;;;;;;6317533;28;19911;-67
2023/01/18 05:16:39;;;;;;;;;;;19.40;52.40;;;;;;6317215;28;19904;-67
2023/01/18 05:19:39;;;;;;;;;;;19.40;52.40;;;;;;6317984;28;19908;-67
2023/01/18 05:22:40;;;;;;;;;;;19.40;52.40;;;;;;6317859;28;20372;-67
2023/01/18 05:25:41;;;;;;;;;;;19.40;52.40;;;;;;6317406;28;19974;-67
2023/01/18 05:28:42;;;;;;;;;;;19.30;52.30;;;;;;6299481;28;19999;-67
2023/01/18 05:31:42;;;;;;;;;;;19.40;52.40;;;;;;6317629;28;19995;-67
2023/01/18 05:34:43;;;;;;;;;;;19.40;52.40;;;;;;6317515;28;19915;-67
2023/01/18 05:37:43;;;;;;;;;;;19.40;52.40;;;;;;6317396;28;19910;-67
2023/01/18 05:40:47;;;;;;;;;;;19.40;52.40;;;;;;6317142;28;20384;-67
2023/01/18 05:43:47;;;;;;;;;;;19.40;52.40;;;;;;6302071;28;19904;-67
2023/01/18 05:46:48;;;;;;;;;;;19.40;52.40;;;;;;6321613;28;19904;-67
2023/01/18 05:49:48;;;;;;;;;;;19.40;52.40;;;;;;6321559;28;19911;-67
2023/01/18 05:52:49;;;;;;;;;;;19.40;52.40;;;;;;6303606;28;19907;-67
2023/01/18 05:55:56;;;;;;;;;;;19.40;52.40;;;;;;6321263;28;19920;-67
2023/01/18 05:58:57;;;;;;;;;;;19.30;52.30;;;;;;6321548;28;19998;-67
2023/01/18 06:01:57;;;;;;;;;;;19.40;52.40;;;;;;6293005;28;19981;-67
2023/01/18 06:04:58;;;;;;;;;;;19.40;52.40;;;;;;6296229;28;19910;-67
2023/01/18 06:07:58;;;;;;;;;;;19.40;52.30;;;;;;6311850;28;20324;-67
2023/01/18 06:10:59;;;;;;;;;;;19.40;52.40;;;;;;6320836;28;19904;-68
2023/01/18 06:14:00;;;;;;;;;;;19.40;52.60;;;;;;6302811;28;20427;-67
2023/01/18 06:17:00;;;;;;;;;;;19.40;52.40;;;;;;6322974;28;19904;-68
2023/01/18 06:20:02;;;;;;;;;;;19.40;52.30;;;;;;6346043;28;20007;-68
2023/01/18 06:23:03;;;;;;;;;;;19.40;52.20;;;;;;6344605;28;19904;-68
2023/01/18 06:26:03;;;;;;;;;;;19.40;52.20;;;;;;6322682;28;19944;-68
2023/01/18 06:29:05;;;;;;;;;;;19.40;52.20;;;;;;6321312;28;19908;-68
2023/01/18 06:32:05;;;;;;;;;;;19.40;52.20;;;;;;6321126;28;20360;-68
2023/01/18 06:35:06;;;;;;;;;;;19.40;52.20;;;;;;6320522;28;19908;-68
2023/01/18 06:38:07;;;;;;;;;;;19.40;52.10;;;;;;6320239;28;20523;-68
2023/01/18 06:41:08;;;;;;;;;;;19.40;52.20;;;;;;6321099;28;20351;-69
2023/01/18 06:44:09;;;;;;;;;;;19.40;52.20;;;;;;6321363;28;19931;-69
2023/01/18 06:47:09;;;;;;;;;;;19.40;52.20;;;;;;6302025;28;20380;-68
2023/01/18 06:50:10;;;;;;;;;;;19.40;52.20;;;;;;6340182;28;19903;-70
2023/01/18 06:53:10;;;;;;;;;;;19.40;53.20;;;;;;6342440;28;19904;-68
2023/01/18 06:56:12;;;;;;;;;;;19.50;52.60;;;;;;6304433;28;19911;-68
2023/01/18 06:59:13;;;;;;;;;;;19.50;52.40;;;;;;6333770;28;19907;-67
2023/01/18 07:02:15;;;;;;;;;;;19.40;52.40;;;;;;6307621;28;20293;-67
2023/01/18 07:05:16;;;;;;;;;;;19.40;52.40;;;;;;6316200;28;20658;-67
2023/01/18 07:08:19;;;;;;;;;;;19.40;52.40;;;;;;6315296;28;19957;-67
2023/01/18 07:11:20;;;;;;;;;;;19.40;52.40;;;;;;6339136;28;19911;-68
2023/01/18 07:14:21;;;;;;;;;;;19.50;52.50;;;;;;6319285;28;19998;-67
2023/01/18 07:17:21;;;;;;;;;;;19.50;52.50;;;;;;6305743;28;19908;-68
2023/01/18 07:20:22;;;;;;;;;;;19.50;52.60;;;;;;6321601;28;19944;-68
2023/01/18 07:23:23;;;;;;;;;;;19.40;52.40;;;;;;6346531;28;19908;-67
2023/01/18 07:26:24;;;;;;;;;;;19.40;52.40;;;;;;6346227;28;19963;-67
2023/01/18 07:29:25;;;;;;;;;;;19.40;52.40;;;;;;6345706;28;19914;-67
2023/01/18 07:32:25;;;;;;;;;;;19.40;52.50;;;;;;6347106;28;20403;-67
2023/01/18 07:35:26;;;;;;;;;;;19.40;52.50;;;;;;6324258;28;20027;-67
2023/01/18 07:38:27;;;;;;;;;;;19.40;52.50;;;;;;6313111;28;20002;-67
2023/01/18 07:41:27;;;;;;;;;;;19.40;52.50;;;;;;6346427;28;19943;-67
2023/01/18 07:44:28;;;;;;;;;;;19.40;52.50;;;;;;6324349;28;19943;-67
2023/01/18 07:47:29;;;;;;;;;;;19.40;52.40;;;;;;6327861;28;19907;-67
2023/01/18 07:50:32;;;;;;;;;;;19.40;52.40;;;;;;6318071;28;19976;-67
2023/01/18 07:53:34;;;;;;;;;;;19.40;52.40;;;;;;6323883;28;19918;-67
2023/01/18 07:56:34;;;;;;;;;;;19.40;52.40;;;;;;6309270;28;19908;-67
2023/01/18 07:59:35;;;;;;;;;;;19.40;52.50;;;;;;6318792;28;19904;-67
2023/01/18 08:02:36;;;;;;;;;;;19.40;52.30;;;;;;6307224;28;20045;-67
2023/01/18 08:05:36;;;;;;;;;;;19.50;52.30;;;;;;6314496;28;19914;-67
2023/01/18 08:08:37;;;;;;;;;;;19.50;52.30;;;;;;6319962;28;19995;-67
2023/01/18 08:11:38;;;;;;;;;;;19.50;52.40;;;;;;6332604;28;19904;-67
2023/01/18 08:14:39;;;;;;;;;;;19.50;52.40;;;;;;6324938;28;19915;-67
2023/01/18 08:17:39;;;;;;;;;;;19.50;52.40;;;;;;6345567;28;19958;-67
2023/01/18 08:20:47;;;;;;;;;;;19.50;52.40;;;;;;6331589;28;20272;-67
2023/01/18 08:23:48;;;;;;;;;;;19.50;52.10;;;;;;6320083;28;19911;-67
2023/01/18 08:26:49;;;;;;;;;;;19.50;51.90;;;;;;6341682;28;19915;-68
2023/01/18 08:29:50;;;;;;;;;;;19.60;51.90;;;;;;6340043;28;19926;-68
2023/01/18 08:32:50;;;;;;;;;;;19.60;52.60;;;;;;6323194;28;19908;-67
2023/01/18 08:35:51;;;;;;;;;;;19.60;51.90;;;;;;6333870;28;19908;-67
2023/01/18 08:38:54;;;;;;;;;;;19.60;52.00;;;;;;6319913;28;19904;-67
2023/01/18 08:41:54;;;;;;;;;;;19.60;52.10;;;;;;6305080;28;19923;-67
2023/01/18 08:44:55;;;;;;;;;;;19.50;51.90;;;;;;6316996;28;20258;-68
2023/01/18 08:47:59;;;;;;;;;;;19.60;52.10;;;;;;6320590;28;19904;-67
2023/01/18 08:51:01;;;;;;;;;;;19.60;51.90;;;;;;6330005;28;19915;-68
2023/01/18 08:54:01;;;;;;;;;;;19.60;52.00;;;;;;6344595;28;19961;-67
2023/01/18 08:57:02;;;;;;;;;;;19.60;51.90;;;;;;6331658;28;19903;-68
2023/01/18 09:00:03;;;;;;;;;;;19.60;51.80;;;;;;6320454;28;19908;-68
2023/01/18 09:03:05;;;;;;;;;;;19.70;51.80;;;;;;6338506;28;19977;-68
2023/01/18 09:06:09;;;;;;;;;;;19.70;52.10;;;;;;6321571;28;19908;-67
2023/01/18 09:09:10;;;;;;;;;;;19.70;52.00;;;;;;6318983;28;19976;-67
2023/01/18 09:12:11;;;;;;;;;;;19.70;52.00;;;;;;6300507;28;19908;-68
2023/01/18 09:15:12;;;;;;;;;;;19.70;52.00;;;;;;6317726;28;19919;-67
2023/01/18 09:18:13;;;;;;;;;;;19.70;51.90;;;;;;6320858;28;19908;-67
2023/01/18 09:21:16;;;;;;;;;;;19.70;51.90;;;;;;6305147;28;19904;-67
2023/01/18 09:24:16;;;;;;;;;;;19.60;51.90;;;;;;6323586;28;20375;-67
2023/01/18 09:27:17;;;;;;;;;;;19.60;51.90;;;;;;6304788;28;19946;-66
2023/01/18 09:30:18;;;;;;;;;;;19.60;51.90;;;;;;6323591;28;20371;-67
2023/01/18 09:33:18;;;;;;;;;;;19.60;51.90;;;;;;6316255;28;19904;-67
2023/01/18 09:36:22;;;;;;;;;;;19.70;52.00;;;;;;6312766;28;19959;-68
2023/01/18 09:39:23;;;;;;;;;;;19.60;52.00;;;;;;6315103;28;19977;-68
2023/01/18 09:42:27;;;;;;;;;;;19.60;52.00;;;;;;6323126;28;19904;-68
2023/01/18 09:45:30;;;;;;;;;;;19.60;52.00;;;;;;6322965;28;19904;-67
2023/01/18 09:48:34;;;;;;;;;;;19.60;52.20;;;;;;6323122;28;19904;-67
2023/01/18 09:52:07;;;;;;;;;;;19.60;51.90;;;;;;6322916;28;20308;-67
2023/01/18 09:55:08;;;;;;;;;;;19.50;49.70;;;;;;6284531;28;19908;-68
2023/01/18 09:58:29;;;;;;;;;;;19.50;50.00;;;;;;6330682;28;19999;-68
2023/01/18 10:01:34;;;;;;;;;;;19.50;49.10;;;;;;6322677;28;19908;-68
2023/01/18 10:04:37;;;;;;;;;;;19.40;49.00;;;;;;6321893;28;20454;-68
2023/01/18 10:07:44;;;;;;;;;;;19.40;47.40;;;;;;6304386;28;19904;-67
2023/01/18 10:10:54;;;;;;;;;;;19.50;48.10;;;;;;6325477;28;19911;-66
2023/01/18 10:13:55;;;;;;;;;;;19.50;48.60;;;;;;6304095;28;19912;-67
2023/01/18 10:17:01;;;;;;;;;;;19.50;49.30;;;;;;6330596;28;20664;-67
2023/01/18 10:20:12;;;;;;;;;;;19.50;49.50;;;;;;6348419;28;20524;-67
2023/01/18 10:23:28;;;;;;;;;;;19.50;49.70;;;;;;6343634;28;20427;-67
2023/01/18 10:26:30;;;;;;;;;;;19.50;49.80;;;;;;6323126;28;19920;-67
2023/01/18 10:29:37;;;;;;;;;;;19.50;50.00;;;;;;6346506;28;19954;-66
2023/01/18 10:32:41;;;;;;;;;;;19.50;50.20;;;;;;6338433;28;19904;-66
2023/01/18 10:35:44;;;;;;;;;;;19.50;50.40;;;;;;6281994;28;19912;-69
2023/01/18 10:38:45;;;;;;;;;;;19.50;50.40;;;;;;6311590;28;19915;-66
2023/01/18 10:41:46;;;;;;;;;;;19.50;50.50;;;;;;6322064;28;19959;-67
2023/01/18 10:44:46;;;;;;;;;;;19.50;50.70;;;;;;6321934;28;19904;-67
2023/01/18 10:47:48;;;;;;;;;;;19.50;49.80;;;;;;6330398;28;19918;-66
2023/01/18 10:50:52;;;;;;;;;;;19.50;49.40;;;;;;6347016;28;19912;-67
2023/01/18 10:53:52;;;;;;;;;;;19.50;49.60;;;;;;6310714;28;20346;-66
2023/01/18 10:57:00;;;;;;;;;;;19.50;50.00;;;;;;6321827;28;19908;-66
2023/01/18 11:00:01;;;;;;;;;;;19.50;50.30;;;;;;6320694;28;19908;-66
2023/01/18 11:03:03;;;;;;;;;;;19.50;50.30;;;;;;6330133;28;19903;-67
2023/01/18 11:06:05;;;;;;;;;;;19.50;50.40;;;;;;6346926;28;19953;-67
2023/01/18 11:09:26;;;;;;;;;;;19.50;50.50;;;;;;6329632;28;20292;-67
2023/01/18 11:12:32;;;;;;;;;;;19.50;50.60;;;;;;6323490;28;19904;-66
2023/01/18 11:15:33;;;;;;;;;;;19.40;51.00;;;;;;6346000;28;20297;-67
2023/01/18 11:18:34;;;;;;;;;;;19.50;50.60;;;;;;6335337;28;19904;-67
2023/01/18 11:21:39;;;;;;;;;;;19.50;50.70;;;;;;6321326;28;19912;-66
2023/01/18 11:24:40;;;;;;;;;;;19.50;50.70;;;;;;6320860;28;19912;-66
2023/01/18 11:27:42;;;;;;;;;;;19.50;50.80;;;;;;6320940;28;19938;-66
2023/01/18 11:30:50;;;;;;;;;;;19.50;50.80;;;;;;6303150;28;19904;-67
2023/01/18 11:33:52;;;;;;;;;;;19.50;50.80;;;;;;6321234;28;20369;-67
2023/01/18 11:36:53;;;;;;;;;;;19.50;50.90;;;;;;6301740;28;20277;-67
2023/01/18 11:39:54;;;;;;;;;;;19.50;50.90;;;;;;6331401;28;19915;-67
2023/01/18 11:43:02;;;;;;;;;;;19.50;51.00;;;;;;6345554;28;19915;-67
2023/01/18 11:46:25;;;;;;;;;;;19.50;51.00;;;;;;6321093;28;19951;-66
2023/01/18 11:49:25;;;;;;;;;;;19.50;51.00;;;;;;6320592;28;19908;-67
2023/01/18 11:52:29;;;;;;;;;;;19.50;51.10;;;;;;6320991;28;20030;-67
2023/01/18 11:55:42;;;;;;;;;;;19.40;51.10;;;;;;6320476;28;20365;-66
2023/01/18 11:58:44;;;;;;;;;;;19.40;51.10;;;;;;6325457;28;19910;-66
2023/01/18 12:01:44;;;;;;;;;;;19.40;51.20;;;;;;6346077;28;19910;-66
2023/01/18 12:05:04;;;;;;;;;;;19.40;51.20;;;;;;6332189;28;19912;-67
2023/01/18 12:08:09;;;;;;;;;;;19.50;51.30;;;;;;6320790;28;19908;-67
2023/01/18 12:11:20;;;;;;;;;;;19.50;51.40;;;;;;6320227;28;19904;-67
2023/01/18 12:14:24;;;;;;;;;;;19.50;51.40;;;;;;6328406;28;19912;-67
2023/01/18 12:17:28;;;;;;;;;;;19.40;51.10;;;;;;6345749;28;19908;-67
2023/01/18 12:20:48;;;;;;;;;;;19.40;51.20;;;;;;6328648;28;19903;-67
2023/01/18 12:23:49;;;;;;;;;;;19.40;51.90;;;;;;6289206;28;20431;-67
2023/01/18 12:26:50;;;;;;;;;;;19.50;51.40;;;;;;6319222;28;19916;-68
2023/01/18 12:30:02;;;;;;;;;;;19.40;51.30;;;;;;6319262;28;20008;-67
2023/01/18 12:33:15;;;;;;;;;;;19.50;51.40;;;;;;6321101;28;19904;-66
2023/01/18 12:36:15;;;;;;;;;;;19.50;51.40;;;;;;6321370;28;19915;-66
2023/01/18 12:39:34;;;;;;;;;;;19.40;51.10;;;;;;6321332;28;19911;-69
2023/01/18 12:42:35;;;;;;;;;;;19.50;51.00;;;;;;6320993;28;19908;-69
2023/01/18 12:45:40;;;;;;;;;;;19.50;51.10;;;;;;6319375;28;19926;-67
2023/01/18 12:49:07;;;;;;;;;;;19.50;51.20;;;;;;6320133;28;19908;-67
2023/01/18 12:52:09;;;;;;;;;;;19.40;51.20;;;;;;6336797;28;19903;-67
2023/01/18 12:55:15;;;;;;;;;;;19.50;51.20;;;;;;6325429;28;19912;-67
2023/01/18 12:58:19;;;;;;;;;;;19.50;51.10;;;;;;6324505;28;19904;-67
2023/01/18 13:01:20;;;;;;;;;;;19.40;51.10;;;;;;6325526;28;20320;-67
2023/01/18 13:04:26;;;;;;;;;;;19.40;51.10;;;;;;6325431;28;19991;-67
2023/01/18 13:07:31;;;;;;;;;;;19.40;51.10;;;;;;6325711;28;19904;-67
2023/01/18 13:10:33;;;;;;;;;;;19.40;51.10;;;;;;6325000;28;19915;-68
2023/01/18 13:13:35;;;;;;;;;;;19.40;51.10;;;;;;6325239;28;19958;-67
2023/01/18 13:16:38;;;;;;;;;;;19.40;51.20;;;;;;6307055;28;19915;-67
2023/01/18 13:19:45;;;;;;;;;;;19.40;51.10;;;;;;6325303;28;19948;-67
2023/01/18 13:22:46;;;;;;;;;;;19.40;51.10;;;;;;6306872;28;20397;-67
2023/01/18 13:25:55;;;;;;;;;;;19.40;51.10;;;;;;6306442;28;19957;-67
2023/01/18 13:29:06;;;;;;;;;;;19.40;51.20;;;;;;6324656;28;20269;-68
2023/01/18 13:32:21;;;;;;;;;;;19.40;51.10;;;;;;6324905;28;20404;-68
2023/01/18 13:35:32;;;;;;;;;;;19.40;51.10;;;;;;6324604;28;20400;-67
2023/01/18 13:38:37;;;;;;;;;;;19.40;51.20;;;;;;6324798;28;20269;-67
2023/01/18 13:41:38;;;;;;;;;;;19.40;51.20;;;;;;6324629;28;20421;-67
2023/01/18 13:44:43;;;;;;;;;;;19.40;51.20;;;;;;6324391;28;19916;-68
2023/01/18 13:47:46;;;;;;;;;;;19.40;51.20;;;;;;6324539;28;19911;-67
2023/01/18 13:50:47;;;;;;;;;;;19.40;51.30;;;;;;6324452;28;19907;-67
2023/01/18 13:53:49;;;;;;;;;;;19.40;51.30;;;;;;6323947;28;20406;-67
2023/01/18 13:57:04;;;;;;;;;;;19.40;51.30;;;;;;6305769;28;19908;-67
2023/01/18 14:00:06;;;;;;;;;;;19.40;51.30;;;;;;6305701;28;19912;-68
2023/01/18 14:03:14;;;;;;;;;;;19.40;51.30;;;;;;6324053;28;19908;-67
2023/01/18 14:06:24;;;;;;;;;;;19.40;51.30;;;;;;6323319;28;20045;-67
2023/01/18 14:09:40;;;;;;;;;;;19.40;51.30;;;;;;6323990;28;19915;-67
2023/01/18 14:12:48;;;;;;;;;;;19.40;51.30;;;;;;6305551;28;19904;-67
2023/01/18 14:15:52;;;;;;;;;;;19.40;51.40;;;;;;6305625;28;19947;-67
2023/01/18 14:19:02;;;;;;;;;;;19.40;51.30;;;;;;6305143;28;20293;-67
2023/01/18 14:22:21;;;;;;;;;;;19.40;51.30;;;;;;6305455;28;19947;-67
2023/01/18 14:25:25;;;;;;;;;;;19.40;51.30;;;;;;6323405;28;19908;-67
2023/01/18 14:28:55;;;;;;;;;;;19.40;51.30;;;;;;6323319;28;19912;-67
2023/01/18 14:31:56;;;;;;;;;;;19.40;51.30;;;;;;6305766;28;19912;-67
2023/01/18 14:34:58;;;;;;;;;;;19.40;51.30;;;;;;6304949;28;19915;-67
2023/01/18 14:38:24;;;;;;;;;;;19.40;51.30;;;;;;6322992;28;19903;-67
2023/01/18 14:41:25;;;;;;;;;;;19.40;51.30;;;;;;6300826;28;20338;-67
2023/01/18 14:44:34;;;;;;;;;;;19.40;51.30;;;;;;6323144;28;19904;-67
2023/01/18 14:47:37;;;;;;;;;;;19.40;51.30;;;;;;6322858;28;19927;-68
2023/01/18 14:50:39;;;;;;;;;;;19.40;51.30;;;;;;6323145;28;19915;-67
2023/01/18 14:53:43;;;;;;;;;;;19.40;51.20;;;;;;6322683;28;19951;-67
2023/01/18 14:56:43;;;;;;;;;;;19.40;51.30;;;;;;6322957;28;19999;-67
2023/01/18 14:59:51;;;;;;;;;;;19.40;52.00;;;;;;6322645;28;19911;-67
2023/01/18 15:02:51;;;;;;;;;;;19.40;51.30;;;;;;6304463;28;20014;-68
2023/01/18 15:05:57;;;;;;;;;;;19.40;51.30;;;;;;6304289;28;19908;-67
2023/01/18 15:08:58;;;;;;;;;;;19.40;51.30;;;;;;6322639;28;19915;-67
2023/01/18 15:12:01;;;;;;;;;;;19.40;51.30;;;;;;6304085;28;19908;-67
2023/01/18 15:15:13;;;;;;;;;;;19.40;51.30;;;;;;6320105;28;19915;-68
2023/01/18 15:18:17;;;;;;;;;;;19.40;51.30;;;;;;6322352;28;20435;-66
2023/01/18 15:21:30;;;;;;;;;;;19.40;51.40;;;;;;6322035;28;20364;-67
2023/01/18 15:24:36;;;;;;;;;;;19.40;51.40;;;;;;6303739;28;19949;-66
2023/01/18 15:27:36;;;;;;;;;;;19.40;51.30;;;;;;6322057;28;19916;-67
2023/01/18 15:30:38;;;;;;;;;;;19.40;51.20;;;;;;6321594;28;19904;-69
2023/01/18 15:33:39;;;;;;;;;;;19.40;51.30;;;;;;6321641;28;19912;-67
2023/01/18 15:36:41;;;;;;;;;;;19.40;51.30;;;;;;6321882;28;20358;-68
2023/01/18 15:39:50;;;;;;;;;;;19.40;51.20;;;;;;6303486;28;19939;-66
2023/01/18 15:42:50;;;;;;;;;;;19.40;51.30;;;;;;6321511;28;20475;-66
2023/01/18 15:45:53;;;;;;;;;;;19.40;51.30;;;;;;6321729;28;19908;-66
2023/01/18 15:48:55;;;;;;;;;;;19.40;51.30;;;;;;6321548;28;19904;-67
2023/01/18 15:51:56;;;;;;;;;;;19.40;51.30;;;;;;6319859;28;19988;-69
2023/01/18 15:54:57;;;;;;;;;;;19.40;51.30;;;;;;6305481;28;20472;-67
2023/01/18 15:58:04;;;;;;;;;;;19.40;51.30;;;;;;6317961;28;19908;-67
2023/01/18 16:01:06;;;;;;;;;;;19.40;51.40;;;;;;6342513;28;19915;-66
2023/01/18 16:04:21;;;;;;;;;;;19.40;51.10;;;;;;6338013;28;20277;-66
2023/01/18 16:07:24;;;;;;;;;;;19.40;51.10;;;;;;6319338;28;19943;-66
2023/01/18 16:10:29;;;;;;;;;;;19.40;51.20;;;;;;6317022;28;19912;-66
2023/01/18 16:13:31;;;;;;;;;;;19.40;51.20;;;;;;6318452;28;20308;-66
2023/01/18 16:16:33;;;;;;;;;;;19.40;51.20;;;;;;6324948;28;19953;-66
2023/01/18 16:19:35;;;;;;;;;;;19.40;51.30;;;;;;6343259;28;19907;-66
2023/01/18 16:22:36;;;;;;;;;;;19.40;51.30;;;;;;6344228;28;19910;-66
2023/01/18 16:25:36;;;;;;;;;;;19.40;51.30;;;;;;6341512;28;20699;-67
2023/01/18 16:28:37;;;;;;;;;;;19.40;51.30;;;;;;6343512;28;19911;-66
2023/01/18 16:31:39;;;;;;;;;;;19.40;51.30;;;;;;6325777;28;19904;-66
2023/01/18 16:34:40;;;;;;;;;;;19.40;51.20;;;;;;6341905;28;19954;-66
2023/01/18 16:37:40;;;;;;;;;;;19.40;51.30;;;;;;6319207;28;20253;-66
2023/01/18 16:40:42;;;;;;;;;;;19.40;51.30;;;;;;6318108;28;19904;-66
2023/01/18 16:43:43;;;;;;;;;;;19.40;51.40;;;;;;6317157;28;19904;-66
2023/01/18 16:46:45;;;;;;;;;;;19.40;51.40;;;;;;6317621;28;19926;-67
2023/01/18 16:49:46;;;;;;;;;;;19.30;51.40;;;;;;6299135;28;19904;-67
2023/01/18 16:52:47;;;;;;;;;;;19.30;51.40;;;;;;6318393;28;19953;-66
2023/01/18 16:55:47;;;;;;;;;;;19.40;51.40;;;;;;6317776;28;19908;-66
2023/01/18 16:58:48;;;;;;;;;;;19.30;51.40;;;;;;6291706;28;19915;-66
2023/01/18 17:01:49;;;;;;;;;;;19.30;51.40;;;;;;6309606;28;19904;-66
2023/01/18 17:04:49;;;;;;;;;;;19.30;51.40;;;;;;6318053;28;19957;-66
2023/01/18 17:07:51;;;;;;;;;;;19.40;51.50;;;;;;6341667;28;19908;-66
2023/01/18 17:10:53;;;;;;;;;;;19.30;51.50;;;;;;6336437;28;19908;-66
2023/01/18 17:13:55;;;;;;;;;;;19.40;51.60;;;;;;6316535;28;20499;-66
2023/01/18 17:16:56;;;;;;;;;;;19.40;51.60;;;;;;6330663;28;19903;-66
2023/01/18 17:19:56;;;;;;;;;;;19.40;51.60;;;;;;6341537;28;19914;-66
2023/01/18 17:22:57;;;;;;;;;;;19.30;51.60;;;;;;6341005;28;20013;-67
2023/01/18 17:25:58;;;;;;;;;;;19.30;51.50;;;;;;6323233;28;19931;-66
2023/01/18 17:28:59;;;;;;;;;;;19.40;51.60;;;;;;6316532;28;20340;-66
2023/01/18 17:31:59;;;;;;;;;;;19.40;51.60;;;;;;6298104;28;19904;-66
2023/01/18 17:35:00;;;;;;;;;;;19.40;51.70;;;;;;6315543;28;19912;-66
2023/01/18 17:38:00;;;;;;;;;;;19.40;51.70;;;;;;6337640;28;19904;-66
2023/01/18 17:41:01;;;;;;;;;;;19.30;51.60;;;;;;6337212;28;19908;-66
2023/01/18 17:44:02;;;;;;;;;;;19.30;51.60;;;;;;6320528;28;19904;-66
2023/01/18 17:47:03;;;;;;;;;;;19.40;51.70;;;;;;6307798;28;19917;-66
2023/01/18 17:50:07;;;;;;;;;;;19.30;51.60;;;;;;6295353;28;20358;-67
2023/01/18 17:53:09;;;;;;;;;;;19.30;51.60;;;;;;6296408;28;19919;-67
2023/01/18 17:56:11;;;;;;;;;;;19.40;51.60;;;;;;6320048;28;19942;-66
2023/01/18 17:59:11;;;;;;;;;;;19.40;51.60;;;;;;6320151;28;19991;-68
2023/01/18 18:02:12;;;;;;;;;;;19.40;51.60;;;;;;6310380;28;20011;-67
2023/01/18 18:05:12;;;;;;;;;;;19.40;51.60;;;;;;6297096;28;19905;-68
2023/01/18 18:08:13;;;;;;;;;;;19.40;51.60;;;;;;6339065;28;19911;-68
2023/01/18 18:11:14;;;;;;;;;;;19.40;51.70;;;;;;6321978;28;20388;-68
2023/01/18 18:14:15;;;;;;;;;;;19.40;52.40;;;;;;6345251;28;20201;-68
2023/01/18 18:17:16;;;;;;;;;;;19.40;51.70;;;;;;6328210;28;19908;-68